sensor_id;sensor_type;location;lat;lon;timestamp;P1;durP1;ratioP1;P2;durP2;ratioP2
70150;SDS011;57517;43.562;19.540;2022-11-13T00:01:24;29.35;;;22.08;;
70150;SDS011;57517;43.562;19.540;2022-11-13T00:03:50;29.40;;;20.48;;
70150;SDS011;57517;43.562;19.540;2022-11-13T00:06:17;31.20;;;21.13;;
70150;SDS011;57517;43.562;19.540;2022-11-13T00:08:43;32.75;;;22.45;;
70150;SDS011;57517;43.562;19.540;2022-11-13T00:11:16;35.40;;;24.90;;
70150;SDS011;57517;43.562;19.540;2022-11-13T00:13:43;36.22;;;24.17;;
70150;SDS011;57517;43.562;19.540;2022-11-13T00:16:10;32.42;;;24.17;;
70150;SDS011;57517;43.562;19.540;2022-11-13T00:18:37;32.28;;;22.42;;
70150;SDS011;57517;43.562;19.540;2022-11-13T00:23:43;28.90;;;20.63;;
70150;SDS011;57517;43.562;19.540;2022-11-13T00:28:38;23.38;;;16.95;;
70150;SDS011;57517;43.562;19.540;2022-11-13T00:31:04;27.50;;;17.42;;
70150;SDS011;57517;43.562;19.540;2022-11-13T00:33:31;22.77;;;16.80;;
70150;SDS011;57517;43.562;19.540;2022-11-13T00:36:04;28.38;;;18.02;;
70150;SDS011;57517;43.562;19.540;2022-11-13T00:38:31;25.33;;;17.73;;
70150;SDS011;57517;43.562;19.540;2022-11-13T00:40:58;27.15;;;17.23;;
70150;SDS011;57517;43.562;19.540;2022-11-13T00:43:23;24.80;;;18.30;;
70150;SDS011;57517;43.562;19.540;2022-11-13T00:45:50;25.40;;;17.80;;
70150;SDS011;57517;43.562;19.540;2022-11-13T00:48:16;25.33;;;16.83;;
70150;SDS011;57517;43.562;19.540;2022-11-13T00:50:42;24.45;;;17.52;;
70150;SDS011;57517;43.562;19.540;2022-11-13T00:53:08;30.55;;;21.25;;
70150;SDS011;57517;43.562;19.540;2022-11-13T00:55:34;25.17;;;18.95;;
70150;SDS011;57517;43.562;19.540;2022-11-13T00:58:00;24.85;;;17.10;;
70150;SDS011;57517;43.562;19.540;2022-11-13T01:00:26;24.10;;;15.88;;
70150;SDS011;57517;43.562;19.540;2022-11-13T01:02:52;25.83;;;16.05;;
70150;SDS011;57517;43.562;19.540;2022-11-13T01:05:17;24.42;;;17.48;;
70150;SDS011;57517;43.562;19.540;2022-11-13T01:07:43;27.02;;;18.35;;
70150;SDS011;57517;43.562;19.540;2022-11-13T01:10:09;28.05;;;19.90;;
70150;SDS011;57517;43.562;19.540;2022-11-13T01:12:35;27.10;;;19.65;;
70150;SDS011;57517;43.562;19.540;2022-11-13T01:15:00;23.75;;;17.45;;
70150;SDS011;57517;43.562;19.540;2022-11-13T01:17:27;30.08;;;20.55;;
70150;SDS011;57517;43.562;19.540;2022-11-13T01:19:53;27.45;;;19.10;;
70150;SDS011;57517;43.562;19.540;2022-11-13T01:22:19;22.45;;;17.13;;
70150;SDS011;57517;43.562;19.540;2022-11-13T01:24:45;23.95;;;16.88;;
70150;SDS011;57517;43.562;19.540;2022-11-13T01:27:11;33.42;;;24.30;;
70150;SDS011;57517;43.562;19.540;2022-11-13T01:29:37;38.10;;;26.55;;
70150;SDS011;57517;43.562;19.540;2022-11-13T01:32:03;40.15;;;28.25;;
70150;SDS011;57517;43.562;19.540;2022-11-13T01:34:29;39.50;;;29.15;;
70150;SDS011;57517;43.562;19.540;2022-11-13T01:36:55;38.92;;;27.35;;
70150;SDS011;57517;43.562;19.540;2022-11-13T01:39:21;29.65;;;21.98;;
70150;SDS011;57517;43.562;19.540;2022-11-13T01:41:46;29.08;;;23.08;;
70150;SDS011;57517;43.562;19.540;2022-11-13T01:44:13;26.35;;;19.63;;
70150;SDS011;57517;43.562;19.540;2022-11-13T01:46:41;29.85;;;21.80;;
70150;SDS011;57517;43.562;19.540;2022-11-13T01:51:46;22.50;;;16.15;;
70150;SDS011;57517;43.562;19.540;2022-11-13T01:54:33;24.20;;;15.73;;
70150;SDS011;57517;43.562;19.540;2022-11-13T01:57:01;20.85;;;14.15;;
70150;SDS011;57517;43.562;19.540;2022-11-13T01:59:29;20.35;;;13.20;;
70150;SDS011;57517;43.562;19.540;2022-11-13T02:01:59;21.23;;;14.70;;
70150;SDS011;57517;43.562;19.540;2022-11-13T02:04:25;23.67;;;14.98;;
70150;SDS011;57517;43.562;19.540;2022-11-13T02:06:54;21.73;;;13.63;;
70150;SDS011;57517;43.562;19.540;2022-11-13T02:09:26;24.20;;;14.40;;
70150;SDS011;57517;43.562;19.540;2022-11-13T02:12:00;22.35;;;15.50;;
70150;SDS011;57517;43.562;19.540;2022-11-13T02:14:27;25.30;;;17.23;;
70150;SDS011;57517;43.562;19.540;2022-11-13T02:17:00;27.42;;;19.35;;
70150;SDS011;57517;43.562;19.540;2022-11-13T02:19:32;23.65;;;18.15;;
70150;SDS011;57517;43.562;19.540;2022-11-13T02:22:09;24.85;;;18.35;;
70150;SDS011;57517;43.562;19.540;2022-11-13T02:24:37;27.48;;;19.20;;
70150;SDS011;57517;43.562;19.540;2022-11-13T02:27:06;26.73;;;19.83;;
70150;SDS011;57517;43.562;19.540;2022-11-13T02:29:37;33.88;;;23.83;;
70150;SDS011;57517;43.562;19.540;2022-11-13T02:32:02;32.17;;;22.80;;
70150;SDS011;57517;43.562;19.540;2022-11-13T02:34:28;30.00;;;21.65;;
70150;SDS011;57517;43.562;19.540;2022-11-13T02:36:54;30.92;;;19.52;;
70150;SDS011;57517;43.562;19.540;2022-11-13T02:39:20;26.85;;;18.85;;
70150;SDS011;57517;43.562;19.540;2022-11-13T02:41:46;28.55;;;19.35;;
70150;SDS011;57517;43.562;19.540;2022-11-13T02:44:11;23.77;;;15.70;;
70150;SDS011;57517;43.562;19.540;2022-11-13T02:46:37;21.73;;;16.40;;
70150;SDS011;57517;43.562;19.540;2022-11-13T02:49:03;30.95;;;22.38;;
70150;SDS011;57517;43.562;19.540;2022-11-13T02:51:29;35.03;;;23.42;;
70150;SDS011;57517;43.562;19.540;2022-11-13T02:53:55;36.20;;;24.50;;
70150;SDS011;57517;43.562;19.540;2022-11-13T02:56:21;31.88;;;21.23;;
70150;SDS011;57517;43.562;19.540;2022-11-13T02:58:47;24.92;;;17.05;;
70150;SDS011;57517;43.562;19.540;2022-11-13T03:01:13;21.27;;;15.20;;
70150;SDS011;57517;43.562;19.540;2022-11-13T03:03:39;20.90;;;15.52;;
70150;SDS011;57517;43.562;19.540;2022-11-13T03:06:04;25.95;;;17.33;;
70150;SDS011;57517;43.562;19.540;2022-11-13T03:08:30;23.13;;;15.48;;
70150;SDS011;57517;43.562;19.540;2022-11-13T03:10:56;22.83;;;15.93;;
70150;SDS011;57517;43.562;19.540;2022-11-13T03:13:22;20.17;;;14.50;;
70150;SDS011;57517;43.562;19.540;2022-11-13T03:15:48;20.48;;;14.68;;
70150;SDS011;57517;43.562;19.540;2022-11-13T03:18:13;20.90;;;15.10;;
70150;SDS011;57517;43.562;19.540;2022-11-13T03:20:40;21.63;;;15.98;;
70150;SDS011;57517;43.562;19.540;2022-11-13T03:23:07;19.17;;;13.88;;
70150;SDS011;57517;43.562;19.540;2022-11-13T03:25:33;19.35;;;14.48;;
70150;SDS011;57517;43.562;19.540;2022-11-13T03:27:59;23.00;;;15.35;;
70150;SDS011;57517;43.562;19.540;2022-11-13T03:30:25;21.13;;;14.10;;
70150;SDS011;57517;43.562;19.540;2022-11-13T03:32:53;21.35;;;13.98;;
70150;SDS011;57517;43.562;19.540;2022-11-13T03:35:20;19.17;;;13.68;;
70150;SDS011;57517;43.562;19.540;2022-11-13T03:37:49;15.57;;;12.82;;
70150;SDS011;57517;43.562;19.540;2022-11-13T03:40:15;18.88;;;12.52;;
70150;SDS011;57517;43.562;19.540;2022-11-13T03:42:41;17.40;;;12.13;;
70150;SDS011;57517;43.562;19.540;2022-11-13T03:45:07;22.50;;;14.90;;
70150;SDS011;57517;43.562;19.540;2022-11-13T03:47:33;24.33;;;16.45;;
70150;SDS011;57517;43.562;19.540;2022-11-13T03:49:59;23.15;;;16.58;;
70150;SDS011;57517;43.562;19.540;2022-11-13T03:52:25;23.77;;;15.00;;
70150;SDS011;57517;43.562;19.540;2022-11-13T03:54:51;22.10;;;14.55;;
70150;SDS011;57517;43.562;19.540;2022-11-13T03:57:17;22.23;;;16.13;;
70150;SDS011;57517;43.562;19.540;2022-11-13T03:59:43;25.23;;;17.50;;
70150;SDS011;57517;43.562;19.540;2022-11-13T04:02:09;24.25;;;18.05;;
70150;SDS011;57517;43.562;19.540;2022-11-13T04:04:34;23.95;;;17.63;;
70150;SDS011;57517;43.562;19.540;2022-11-13T04:07:01;23.38;;;16.85;;
70150;SDS011;57517;43.562;19.540;2022-11-13T04:09:27;28.83;;;19.85;;
70150;SDS011;57517;43.562;19.540;2022-11-13T04:11:52;27.15;;;20.02;;
70150;SDS011;57517;43.562;19.540;2022-11-13T04:14:18;27.15;;;18.98;;
70150;SDS011;57517;43.562;19.540;2022-11-13T04:16:44;25.95;;;17.98;;
70150;SDS011;57517;43.562;19.540;2022-11-13T04:19:10;22.20;;;16.30;;
70150;SDS011;57517;43.562;19.540;2022-11-13T04:21:35;26.10;;;17.67;;
70150;SDS011;57517;43.562;19.540;2022-11-13T04:24:01;26.05;;;16.88;;
70150;SDS011;57517;43.562;19.540;2022-11-13T04:26:27;37.45;;;28.10;;
70150;SDS011;57517;43.562;19.540;2022-11-13T04:28:53;42.30;;;30.00;;
70150;SDS011;57517;43.562;19.540;2022-11-13T04:31:18;42.15;;;29.45;;
70150;SDS011;57517;43.562;19.540;2022-11-13T04:33:44;38.92;;;27.23;;
70150;SDS011;57517;43.562;19.540;2022-11-13T04:36:10;34.80;;;24.60;;
70150;SDS011;57517;43.562;19.540;2022-11-13T04:38:36;38.33;;;24.83;;
70150;SDS011;57517;43.562;19.540;2022-11-13T04:41:01;34.53;;;23.90;;
70150;SDS011;57517;43.562;19.540;2022-11-13T04:43:46;29.25;;;21.15;;
70150;SDS011;57517;43.562;19.540;2022-11-13T04:46:12;29.08;;;20.02;;
70150;SDS011;57517;43.562;19.540;2022-11-13T04:48:37;31.08;;;22.63;;
70150;SDS011;57517;43.562;19.540;2022-11-13T04:51:03;28.40;;;21.25;;
70150;SDS011;57517;43.562;19.540;2022-11-13T04:53:29;35.47;;;23.40;;
70150;SDS011;57517;43.562;19.540;2022-11-13T04:55:55;30.83;;;22.55;;
70150;SDS011;57517;43.562;19.540;2022-11-13T04:58:21;33.40;;;24.30;;
70150;SDS011;57517;43.562;19.540;2022-11-13T05:00:46;42.40;;;28.83;;
70150;SDS011;57517;43.562;19.540;2022-11-13T05:03:12;35.28;;;24.60;;
70150;SDS011;57517;43.562;19.540;2022-11-13T05:05:38;35.25;;;24.83;;
70150;SDS011;57517;43.562;19.540;2022-11-13T05:08:04;39.95;;;26.10;;
70150;SDS011;57517;43.562;19.540;2022-11-13T05:10:30;38.63;;;27.08;;
70150;SDS011;57517;43.562;19.540;2022-11-13T05:12:55;42.80;;;28.35;;
70150;SDS011;57517;43.562;19.540;2022-11-13T05:15:21;35.45;;;26.13;;
70150;SDS011;57517;43.562;19.540;2022-11-13T05:17:47;39.65;;;28.70;;
70150;SDS011;57517;43.562;19.540;2022-11-13T05:20:13;43.58;;;30.30;;
70150;SDS011;57517;43.562;19.540;2022-11-13T05:22:39;42.75;;;31.65;;
70150;SDS011;57517;43.562;19.540;2022-11-13T05:25:05;44.50;;;30.50;;
70150;SDS011;57517;43.562;19.540;2022-11-13T05:27:31;41.67;;;29.73;;
70150;SDS011;57517;43.562;19.540;2022-11-13T05:29:57;47.25;;;30.08;;
70150;SDS011;57517;43.562;19.540;2022-11-13T05:32:22;46.70;;;30.88;;
70150;SDS011;57517;43.562;19.540;2022-11-13T05:34:48;48.28;;;31.35;;
70150;SDS011;57517;43.562;19.540;2022-11-13T05:37:14;46.17;;;31.10;;
70150;SDS011;57517;43.562;19.540;2022-11-13T05:39:40;42.05;;;29.13;;
70150;SDS011;57517;43.562;19.540;2022-11-13T05:42:07;45.92;;;30.45;;
70150;SDS011;57517;43.562;19.540;2022-11-13T05:44:33;46.03;;;29.95;;
70150;SDS011;57517;43.562;19.540;2022-11-13T05:46:58;39.90;;;27.98;;
70150;SDS011;57517;43.562;19.540;2022-11-13T05:49:24;47.47;;;32.20;;
70150;SDS011;57517;43.562;19.540;2022-11-13T05:51:50;48.78;;;33.67;;
70150;SDS011;57517;43.562;19.540;2022-11-13T05:54:19;50.58;;;34.30;;
70150;SDS011;57517;43.562;19.540;2022-11-13T05:56:44;46.45;;;30.67;;
70150;SDS011;57517;43.562;19.540;2022-11-13T05:59:10;47.72;;;31.83;;
70150;SDS011;57517;43.562;19.540;2022-11-13T06:01:37;48.65;;;32.20;;
70150;SDS011;57517;43.562;19.540;2022-11-13T06:04:04;40.53;;;29.00;;
70150;SDS011;57517;43.562;19.540;2022-11-13T06:06:32;48.45;;;31.88;;
70150;SDS011;57517;43.562;19.540;2022-11-13T06:08:59;44.35;;;31.13;;
70150;SDS011;57517;43.562;19.540;2022-11-13T06:11:27;49.13;;;32.42;;
70150;SDS011;57517;43.562;19.540;2022-11-13T06:13:54;43.78;;;31.90;;
70150;SDS011;57517;43.562;19.540;2022-11-13T06:16:22;53.72;;;33.92;;
70150;SDS011;57517;43.562;19.540;2022-11-13T06:18:49;48.35;;;32.70;;
70150;SDS011;57517;43.562;19.540;2022-11-13T06:21:20;49.20;;;33.47;;
70150;SDS011;57517;43.562;19.540;2022-11-13T06:23:49;49.15;;;33.00;;
70150;SDS011;57517;43.562;19.540;2022-11-13T06:26:17;48.88;;;33.65;;
70150;SDS011;57517;43.562;19.540;2022-11-13T06:28:46;52.53;;;34.55;;
70150;SDS011;57517;43.562;19.540;2022-11-13T06:31:14;47.03;;;33.55;;
70150;SDS011;57517;43.562;19.540;2022-11-13T06:33:44;49.92;;;34.33;;
70150;SDS011;57517;43.562;19.540;2022-11-13T06:36:11;48.33;;;33.10;;
70150;SDS011;57517;43.562;19.540;2022-11-13T06:38:39;47.13;;;32.88;;
70150;SDS011;57517;43.562;19.540;2022-11-13T06:41:06;45.72;;;31.38;;
70150;SDS011;57517;43.562;19.540;2022-11-13T06:43:33;49.45;;;34.65;;
70150;SDS011;57517;43.562;19.540;2022-11-13T06:46:02;48.92;;;34.67;;
70150;SDS011;57517;43.562;19.540;2022-11-13T06:48:30;52.80;;;34.28;;
70150;SDS011;57517;43.562;19.540;2022-11-13T06:51:00;44.58;;;30.13;;
70150;SDS011;57517;43.562;19.540;2022-11-13T06:53:27;51.67;;;35.00;;
70150;SDS011;57517;43.562;19.540;2022-11-13T06:55:53;72.93;;;50.42;;
70150;SDS011;57517;43.562;19.540;2022-11-13T06:58:19;81.80;;;57.40;;
70150;SDS011;57517;43.562;19.540;2022-11-13T07:00:45;54.10;;;38.80;;
70150;SDS011;57517;43.562;19.540;2022-11-13T07:03:18;45.47;;;34.13;;
70150;SDS011;57517;43.562;19.540;2022-11-13T07:05:46;42.75;;;30.08;;
70150;SDS011;57517;43.562;19.540;2022-11-13T07:08:12;49.15;;;39.13;;
70150;SDS011;57517;43.562;19.540;2022-11-13T07:10:39;58.58;;;44.70;;
70150;SDS011;57517;43.562;19.540;2022-11-13T07:13:05;67.10;;;58.70;;
70150;SDS011;57517;43.562;19.540;2022-11-13T07:15:38;68.80;;;55.42;;
70150;SDS011;57517;43.562;19.540;2022-11-13T07:18:04;97.38;;;74.18;;
70150;SDS011;57517;43.562;19.540;2022-11-13T07:20:31;85.82;;;65.45;;
70150;SDS011;57517;43.562;19.540;2022-11-13T07:22:58;84.35;;;67.07;;
70150;SDS011;57517;43.562;19.540;2022-11-13T07:25:26;47.13;;;36.17;;
70150;SDS011;57517;43.562;19.540;2022-11-13T07:27:52;52.75;;;42.42;;
70150;SDS011;57517;43.562;19.540;2022-11-13T07:30:18;40.80;;;31.40;;
70150;SDS011;57517;43.562;19.540;2022-11-13T07:32:45;54.90;;;46.03;;
70150;SDS011;57517;43.562;19.540;2022-11-13T07:35:11;71.88;;;55.97;;
70150;SDS011;57517;43.562;19.540;2022-11-13T07:37:36;39.03;;;31.92;;
70150;SDS011;57517;43.562;19.540;2022-11-13T07:40:03;62.92;;;52.50;;
70150;SDS011;57517;43.562;19.540;2022-11-13T07:42:29;40.58;;;30.65;;
70150;SDS011;57517;43.562;19.540;2022-11-13T07:44:55;48.08;;;40.28;;
70150;SDS011;57517;43.562;19.540;2022-11-13T07:47:21;50.22;;;42.97;;
70150;SDS011;57517;43.562;19.540;2022-11-13T07:49:47;41.83;;;33.67;;
70150;SDS011;57517;43.562;19.540;2022-11-13T07:52:13;47.13;;;40.88;;
70150;SDS011;57517;43.562;19.540;2022-11-13T07:54:39;39.38;;;34.67;;
70150;SDS011;57517;43.562;19.540;2022-11-13T07:57:05;37.30;;;30.75;;
70150;SDS011;57517;43.562;19.540;2022-11-13T07:59:31;36.83;;;31.25;;
70150;SDS011;57517;43.562;19.540;2022-11-13T08:01:56;44.83;;;35.80;;
70150;SDS011;57517;43.562;19.540;2022-11-13T08:04:22;43.38;;;37.92;;
70150;SDS011;57517;43.562;19.540;2022-11-13T08:06:48;39.70;;;32.53;;
70150;SDS011;57517;43.562;19.540;2022-11-13T08:09:14;37.95;;;32.00;;
70150;SDS011;57517;43.562;19.540;2022-11-13T08:11:39;44.33;;;39.45;;
70150;SDS011;57517;43.562;19.540;2022-11-13T08:14:05;39.05;;;32.80;;
70150;SDS011;57517;43.562;19.540;2022-11-13T08:16:32;28.77;;;23.58;;
70150;SDS011;57517;43.562;19.540;2022-11-13T08:18:57;28.90;;;24.15;;
70150;SDS011;57517;43.562;19.540;2022-11-13T08:21:23;25.92;;;21.33;;
70150;SDS011;57517;43.562;19.540;2022-11-13T08:23:49;27.83;;;22.80;;
70150;SDS011;57517;43.562;19.540;2022-11-13T08:26:16;29.80;;;24.42;;
70150;SDS011;57517;43.562;19.540;2022-11-13T08:28:42;32.28;;;27.95;;
70150;SDS011;57517;43.562;19.540;2022-11-13T08:31:12;31.42;;;25.67;;
70150;SDS011;57517;43.562;19.540;2022-11-13T08:33:39;29.15;;;25.63;;
70150;SDS011;57517;43.562;19.540;2022-11-13T08:36:06;27.40;;;24.40;;
70150;SDS011;57517;43.562;19.540;2022-11-13T08:38:32;34.55;;;18.55;;
70150;SDS011;57517;43.562;19.540;2022-11-13T08:40:58;19.65;;;17.35;;
70150;SDS011;57517;43.562;19.540;2022-11-13T08:43:26;22.95;;;19.58;;
70150;SDS011;57517;43.562;19.540;2022-11-13T08:45:51;23.60;;;21.10;;
70150;SDS011;57517;43.562;19.540;2022-11-13T08:48:17;23.00;;;19.70;;
70150;SDS011;57517;43.562;19.540;2022-11-13T08:50:43;21.77;;;17.92;;
70150;SDS011;57517;43.562;19.540;2022-11-13T08:53:09;21.85;;;19.33;;
70150;SDS011;57517;43.562;19.540;2022-11-13T08:55:35;26.50;;;21.45;;
70150;SDS011;57517;43.562;19.540;2022-11-13T08:58:02;25.73;;;22.70;;
70150;SDS011;57517;43.562;19.540;2022-11-13T09:00:29;27.10;;;23.58;;
70150;SDS011;57517;43.562;19.540;2022-11-13T09:02:57;21.08;;;18.20;;
70150;SDS011;57517;43.562;19.540;2022-11-13T09:05:24;44.45;;;36.80;;
70150;SDS011;57517;43.562;19.540;2022-11-13T09:07:50;45.42;;;35.17;;
70150;SDS011;57517;43.562;19.540;2022-11-13T09:10:20;28.00;;;24.70;;
70150;SDS011;57517;43.562;19.540;2022-11-13T09:12:45;27.38;;;22.83;;
70150;SDS011;57517;43.562;19.540;2022-11-13T09:15:11;26.33;;;23.67;;
70150;SDS011;57517;43.562;19.540;2022-11-13T09:17:37;25.52;;;22.67;;
70150;SDS011;57517;43.562;19.540;2022-11-13T09:20:03;19.05;;;17.10;;
70150;SDS011;57517;43.562;19.540;2022-11-13T09:22:33;18.17;;;15.90;;
70150;SDS011;57517;43.562;19.540;2022-11-13T09:24:59;14.75;;;13.18;;
70150;SDS011;57517;43.562;19.540;2022-11-13T09:27:25;23.05;;;20.65;;
70150;SDS011;57517;43.562;19.540;2022-11-13T09:29:50;22.77;;;20.23;;
70150;SDS011;57517;43.562;19.540;2022-11-13T09:32:16;22.75;;;20.40;;
70150;SDS011;57517;43.562;19.540;2022-11-13T09:34:42;22.10;;;19.80;;
70150;SDS011;57517;43.562;19.540;2022-11-13T09:37:08;17.25;;;15.27;;
70150;SDS011;57517;43.562;19.540;2022-11-13T09:39:34;17.20;;;14.90;;
70150;SDS011;57517;43.562;19.540;2022-11-13T09:44:41;16.95;;;15.23;;
70150;SDS011;57517;43.562;19.540;2022-11-13T09:47:17;20.45;;;18.35;;
70150;SDS011;57517;43.562;19.540;2022-11-13T09:49:50;19.95;;;17.92;;
70150;SDS011;57517;43.562;19.540;2022-11-13T09:52:42;19.48;;;17.48;;
70150;SDS011;57517;43.562;19.540;2022-11-13T09:55:15;20.98;;;18.80;;
70150;SDS011;57517;43.562;19.540;2022-11-13T10:00:17;19.00;;;17.13;;
70150;SDS011;57517;43.562;19.540;2022-11-13T10:08:14;17.15;;;15.38;;
70150;SDS011;57517;43.562;19.540;2022-11-13T10:10:47;19.25;;;16.30;;
70150;SDS011;57517;43.562;19.540;2022-11-13T10:13:16;19.05;;;17.13;;
70150;SDS011;57517;43.562;19.540;2022-11-13T10:15:45;22.10;;;19.70;;
70150;SDS011;57517;43.562;19.540;2022-11-13T10:18:17;39.35;;;35.10;;
70150;SDS011;57517;43.562;19.540;2022-11-13T10:20:49;32.07;;;27.77;;
70150;SDS011;57517;43.562;19.540;2022-11-13T10:23:35;18.02;;;15.52;;
70150;SDS011;57517;43.562;19.540;2022-11-13T10:26:10;18.77;;;16.83;;
70150;SDS011;57517;43.562;19.540;2022-11-13T10:28:39;23.70;;;20.55;;
70150;SDS011;57517;43.562;19.540;2022-11-13T10:34:23;26.25;;;20.80;;
70150;SDS011;57517;43.562;19.540;2022-11-13T10:39:43;19.50;;;16.77;;
70150;SDS011;57517;43.562;19.540;2022-11-13T10:42:22;16.65;;;14.07;;
70150;SDS011;57517;43.562;19.540;2022-11-13T10:44:52;25.15;;;22.73;;
70150;SDS011;57517;43.562;19.540;2022-11-13T10:47:20;16.83;;;15.18;;
70150;SDS011;57517;43.562;19.540;2022-11-13T10:49:47;19.98;;;17.77;;
70150;SDS011;57517;43.562;19.540;2022-11-13T10:52:18;20.15;;;17.83;;
70150;SDS011;57517;43.562;19.540;2022-11-13T10:54:47;20.27;;;18.13;;
70150;SDS011;57517;43.562;19.540;2022-11-13T10:57:22;16.55;;;14.77;;
70150;SDS011;57517;43.562;19.540;2022-11-13T10:59:59;22.80;;;20.33;;
70150;SDS011;57517;43.562;19.540;2022-11-13T11:02:26;22.10;;;19.67;;
70150;SDS011;57517;43.562;19.540;2022-11-13T11:07:29;29.65;;;26.48;;
70150;SDS011;57517;43.562;19.540;2022-11-13T11:10:06;38.17;;;34.30;;
70150;SDS011;57517;43.562;19.540;2022-11-13T11:13:07;39.70;;;35.67;;
70150;SDS011;57517;43.562;19.540;2022-11-13T11:18:21;28.77;;;25.88;;
70150;SDS011;57517;43.562;19.540;2022-11-13T11:21:00;32.97;;;29.60;;
70150;SDS011;57517;43.562;19.540;2022-11-13T11:23:44;24.27;;;21.73;;
70150;SDS011;57517;43.562;19.540;2022-11-13T11:26:13;20.77;;;18.58;;
70150;SDS011;57517;43.562;19.540;2022-11-13T11:31:34;18.00;;;16.20;;
70150;SDS011;57517;43.562;19.540;2022-11-13T11:34:34;21.40;;;18.17;;
70150;SDS011;57517;43.562;19.540;2022-11-13T11:39:48;19.65;;;17.63;;
70150;SDS011;57517;43.562;19.540;2022-11-13T11:42:21;20.33;;;16.85;;
70150;SDS011;57517;43.562;19.540;2022-11-13T11:45:02;19.58;;;15.68;;
70150;SDS011;57517;43.562;19.540;2022-11-13T11:47:39;41.17;;;31.40;;
70150;SDS011;57517;43.562;19.540;2022-11-13T11:50:11;141.63;;;105.80;;
70150;SDS011;57517;43.562;19.540;2022-11-13T11:52:46;164.40;;;121.85;;
70150;SDS011;57517;43.562;19.540;2022-11-13T11:59:00;106.45;;;76.45;;
70150;SDS011;57517;43.562;19.540;2022-11-13T12:05:11;31.35;;;24.02;;
70150;SDS011;57517;43.562;19.540;2022-11-13T12:10:48;20.05;;;16.00;;
70150;SDS011;57517;43.562;19.540;2022-11-13T12:13:27;16.45;;;11.60;;
70150;SDS011;57517;43.562;19.540;2022-11-13T12:16:03;18.15;;;12.07;;
70150;SDS011;57517;43.562;19.540;2022-11-13T12:19:03;13.05;;;10.75;;
70150;SDS011;57517;43.562;19.540;2022-11-13T12:24:40;16.88;;;13.27;;
70150;SDS011;57517;43.562;19.540;2022-11-13T12:30:15;13.40;;;10.93;;
70150;SDS011;57517;43.562;19.540;2022-11-13T12:35:28;16.67;;;14.03;;
70150;SDS011;57517;43.562;19.540;2022-11-13T12:45:51;26.90;;;18.30;;
70150;SDS011;57517;43.562;19.540;2022-11-13T12:51:06;18.48;;;14.68;;
70150;SDS011;57517;43.562;19.540;2022-11-13T12:53:48;20.15;;;14.80;;
70150;SDS011;57517;43.562;19.540;2022-11-13T13:01:19;14.05;;;11.30;;
70150;SDS011;57517;43.562;19.540;2022-11-13T13:06:40;14.77;;;12.00;;
70150;SDS011;57517;43.562;19.540;2022-11-13T13:09:43;13.30;;;10.98;;
70150;SDS011;57517;43.562;19.540;2022-11-13T13:12:25;13.90;;;11.70;;
70150;SDS011;57517;43.562;19.540;2022-11-13T13:23:35;20.95;;;13.55;;
70150;SDS011;57517;43.562;19.540;2022-11-13T13:26:04;22.08;;;18.73;;
70150;SDS011;57517;43.562;19.540;2022-11-13T13:28:52;20.60;;;16.73;;
70150;SDS011;57517;43.562;19.540;2022-11-13T13:31:24;19.00;;;14.88;;
70150;SDS011;57517;43.562;19.540;2022-11-13T13:36:57;21.92;;;18.65;;
70150;SDS011;57517;43.562;19.540;2022-11-13T13:44:58;34.95;;;29.02;;
70150;SDS011;57517;43.562;19.540;2022-11-13T13:47:36;32.55;;;24.42;;
70150;SDS011;57517;43.562;19.540;2022-11-13T13:50:06;33.83;;;27.83;;
70150;SDS011;57517;43.562;19.540;2022-11-13T13:52:38;31.02;;;25.70;;
70150;SDS011;57517;43.562;19.540;2022-11-13T13:55:05;28.17;;;24.08;;
70150;SDS011;57517;43.562;19.540;2022-11-13T13:57:32;41.25;;;31.98;;
70150;SDS011;57517;43.562;19.540;2022-11-13T14:00:08;39.08;;;32.45;;
70150;SDS011;57517;43.562;19.540;2022-11-13T14:07:49;49.00;;;39.58;;
70150;SDS011;57517;43.562;19.540;2022-11-13T14:10:16;52.78;;;41.38;;
70150;SDS011;57517;43.562;19.540;2022-11-13T14:12:44;53.00;;;40.20;;
70150;SDS011;57517;43.562;19.540;2022-11-13T14:15:57;50.10;;;39.55;;
70150;SDS011;57517;43.562;19.540;2022-11-13T14:18:07;52.80;;;41.13;;
70150;SDS011;57517;43.562;19.540;2022-11-13T14:20:47;60.33;;;48.67;;
70150;SDS011;57517;43.562;19.540;2022-11-13T14:23:20;61.97;;;51.28;;
70150;SDS011;57517;43.562;19.540;2022-11-13T14:25:52;53.53;;;42.00;;
70150;SDS011;57517;43.562;19.540;2022-11-13T14:28:20;60.42;;;43.60;;
70150;SDS011;57517;43.562;19.540;2022-11-13T14:30:52;56.78;;;44.83;;
70150;SDS011;57517;43.562;19.540;2022-11-13T14:33:37;55.30;;;44.50;;
70150;SDS011;57517;43.562;19.540;2022-11-13T14:36:08;55.88;;;45.42;;
70150;SDS011;57517;43.562;19.540;2022-11-13T14:38:38;57.00;;;46.10;;
70150;SDS011;57517;43.562;19.540;2022-11-13T14:41:13;54.95;;;45.15;;
70150;SDS011;57517;43.562;19.540;2022-11-13T14:44:12;52.35;;;41.25;;
70150;SDS011;57517;43.562;19.540;2022-11-13T14:46:56;44.72;;;37.97;;
70150;SDS011;57517;43.562;19.540;2022-11-13T14:49:42;42.25;;;35.22;;
70150;SDS011;57517;43.562;19.540;2022-11-13T14:52:18;51.55;;;40.20;;
70150;SDS011;57517;43.562;19.540;2022-11-13T14:54:48;61.45;;;49.85;;
70150;SDS011;57517;43.562;19.540;2022-11-13T14:57:27;72.30;;;59.72;;
70150;SDS011;57517;43.562;19.540;2022-11-13T14:59:53;81.78;;;61.30;;
70150;SDS011;57517;43.562;19.540;2022-11-13T15:02:19;74.75;;;57.45;;
70150;SDS011;57517;43.562;19.540;2022-11-13T15:04:45;60.63;;;49.72;;
70150;SDS011;57517;43.562;19.540;2022-11-13T15:07:20;65.72;;;54.35;;
70150;SDS011;57517;43.562;19.540;2022-11-13T15:09:52;74.07;;;59.65;;
70150;SDS011;57517;43.562;19.540;2022-11-13T15:12:19;77.20;;;63.20;;
70150;SDS011;57517;43.562;19.540;2022-11-13T15:14:44;78.45;;;65.07;;
70150;SDS011;57517;43.562;19.540;2022-11-13T15:17:14;79.57;;;64.95;;
70150;SDS011;57517;43.562;19.540;2022-11-13T15:19:43;77.35;;;63.25;;
70150;SDS011;57517;43.562;19.540;2022-11-13T15:22:12;111.85;;;85.82;;
70150;SDS011;57517;43.562;19.540;2022-11-13T15:24:39;89.72;;;74.93;;
70150;SDS011;57517;43.562;19.540;2022-11-13T15:27:05;85.28;;;72.85;;
70150;SDS011;57517;43.562;19.540;2022-11-13T15:29:33;93.75;;;79.18;;
70150;SDS011;57517;43.562;19.540;2022-11-13T15:31:59;93.30;;;77.55;;
70150;SDS011;57517;43.562;19.540;2022-11-13T15:34:25;94.93;;;80.85;;
70150;SDS011;57517;43.562;19.540;2022-11-13T15:36:51;99.43;;;80.90;;
70150;SDS011;57517;43.562;19.540;2022-11-13T15:39:17;98.40;;;83.97;;
70150;SDS011;57517;43.562;19.540;2022-11-13T15:41:43;119.65;;;100.47;;
70150;SDS011;57517;43.562;19.540;2022-11-13T15:44:11;112.88;;;84.30;;
70150;SDS011;57517;43.562;19.540;2022-11-13T15:46:38;103.78;;;80.22;;
70150;SDS011;57517;43.562;19.540;2022-11-13T15:49:04;99.15;;;79.80;;
70150;SDS011;57517;43.562;19.540;2022-11-13T15:56:38;228.52;;;158.32;;
70150;SDS011;57517;43.562;19.540;2022-11-13T15:59:04;201.75;;;141.85;;